sensor_id;sensor_type;location;lat;lon;timestamp;pressure;altitude;pressure_sealevel;temperature;humidity
7309;BME280;3695;53.330;9.876;2023-07-20T00:02:06;101789.38;;;28.53;nan
7309;BME280;3695;53.330;9.876;2023-07-20T00:04:33;101791.34;;;28.89;nan
7309;BME280;3695;53.330;9.876;2023-07-20T00:07:00;101832.31;;;25.68;nan
7309;BME280;3695;53.330;9.876;2023-07-20T00:09:27;101819.47;;;25.43;nan
7309;BME280;3695;53.330;9.876;2023-07-20T00:11:53;101828.16;;;24.64;nan
7309;BME280;3695;53.330;9.876;2023-07-20T00:14:21;101810.84;;;25.21;nan
7309;BME280;3695;53.330;9.876;2023-07-20T00:16:50;101816.63;;;24.86;nan
7309;BME280;3695;53.330;9.876;2023-07-20T00:19:21;101809.59;;;25.61;nan
7309;BME280;3695;53.330;9.876;2023-07-20T00:21:47;101800.66;;;25.12;nan
7309;BME280;3695;53.330;9.876;2023-07-20T00:24:14;101791.88;;;25.81;nan
7309;BME280;3695;53.330;9.876;2023-07-20T00:26:40;101796.84;;;26.08;nan
7309;BME280;3695;53.330;9.876;2023-07-20T00:29:07;101795.97;;;29.25;nan
7309;BME280;3695;53.330;9.876;2023-07-20T00:31:35;101820.50;;;25.53;nan
7309;BME280;3695;53.330;9.876;2023-07-20T00:34:02;101830.81;;;24.35;nan
7309;BME280;3695;53.330;9.876;2023-07-20T00:36:28;101833.56;;;23.04;nan
7309;BME280;3695;53.330;9.876;2023-07-20T00:38:55;101823.31;;;23.45;nan
7309;BME280;3695;53.330;9.876;2023-07-20T00:41:24;101812.66;;;25.02;nan
7309;BME280;3695;53.330;9.876;2023-07-20T00:43:54;101825.53;;;23.43;nan
7309;BME280;3695;53.330;9.876;2023-07-20T00:46:22;101811.72;;;24.33;nan
7309;BME280;3695;53.330;9.876;2023-07-20T00:48:51;101832.16;;;23.58;nan
7309;BME280;3695;53.330;9.876;2023-07-20T00:51:18;101826.91;;;22.75;nan
7309;BME280;3695;53.330;9.876;2023-07-20T00:53:45;101825.06;;;22.18;nan
7309;BME280;3695;53.330;9.876;2023-07-20T00:56:11;101816.44;;;23.22;nan
7309;BME280;3695;53.330;9.876;2023-07-20T00:58:38;101805.13;;;24.19;nan
7309;BME280;3695;53.330;9.876;2023-07-20T01:01:04;101807.88;;;25.13;nan
7309;BME280;3695;53.330;9.876;2023-07-20T01:03:31;101806.25;;;24.08;nan
7309;BME280;3695;53.330;9.876;2023-07-20T01:06:05;101818.25;;;23.88;nan
7309;BME280;3695;53.330;9.876;2023-07-20T01:08:39;101820.69;;;24.00;nan
7309;BME280;3695;53.330;9.876;2023-07-20T01:11:19;101834.38;;;23.76;nan
7309;BME280;3695;53.330;9.876;2023-07-20T01:13:50;101834.13;;;23.32;nan
7309;BME280;3695;53.330;9.876;2023-07-20T01:16:16;101818.03;;;23.79;nan
7309;BME280;3695;53.330;9.876;2023-07-20T01:18:43;101829.72;;;22.85;nan
7309;BME280;3695;53.330;9.876;2023-07-20T01:21:15;101791.44;;;35.87;nan
7309;BME280;3695;53.330;9.876;2023-07-20T01:24:04;101800.59;;;32.85;nan
7309;BME280;3695;53.330;9.876;2023-07-20T01:26:54;101812.34;;;28.37;nan
7309;BME280;3695;53.330;9.876;2023-07-20T01:29:46;101813.97;;;26.15;nan
7309;BME280;3695;53.330;9.876;2023-07-20T01:32:21;101809.50;;;26.76;nan
7309;BME280;3695;53.330;9.876;2023-07-20T01:34:52;101793.56;;;28.15;nan
7309;BME280;3695;53.330;9.876;2023-07-20T01:37:20;101810.25;;;26.81;nan
7309;BME280;3695;53.330;9.876;2023-07-20T01:39:51;101800.16;;;25.62;nan
7309;BME280;3695;53.330;9.876;2023-07-20T01:42:20;101788.66;;;25.45;nan
7309;BME280;3695;53.330;9.876;2023-07-20T01:44:47;101808.38;;;22.75;nan
7309;BME280;3695;53.330;9.876;2023-07-20T01:47:13;101801.66;;;22.25;nan
7309;BME280;3695;53.330;9.876;2023-07-20T01:49:41;101817.91;;;26.33;nan
7309;BME280;3695;53.330;9.876;2023-07-20T01:52:07;101818.88;;;23.70;nan
7309;BME280;3695;53.330;9.876;2023-07-20T01:54:34;101810.75;;;23.94;nan
7309;BME280;3695;53.330;9.876;2023-07-20T01:57:00;101816.41;;;23.58;nan
7309;BME280;3695;53.330;9.876;2023-07-20T01:59:27;101814.81;;;22.03;nan
7309;BME280;3695;53.330;9.876;2023-07-20T02:01:53;101808.41;;;22.85;nan
7309;BME280;3695;53.330;9.876;2023-07-20T02:04:19;101791.19;;;25.70;nan
7309;BME280;3695;53.330;9.876;2023-07-20T02:06:47;101801.94;;;23.81;nan
7309;BME280;3695;53.330;9.876;2023-07-20T02:09:13;101787.69;;;26.26;nan
7309;BME280;3695;53.330;9.876;2023-07-20T02:11:40;101791.75;;;27.23;nan
7309;BME280;3695;53.330;9.876;2023-07-20T02:14:06;101797.28;;;27.55;nan
7309;BME280;3695;53.330;9.876;2023-07-20T02:16:33;101806.66;;;26.62;nan
7309;BME280;3695;53.330;9.876;2023-07-20T02:18:59;101804.31;;;25.07;nan
7309;BME280;3695;53.330;9.876;2023-07-20T02:21:25;101786.16;;;27.83;nan
7309;BME280;3695;53.330;9.876;2023-07-20T02:23:53;101803.81;;;26.06;nan
7309;BME280;3695;53.330;9.876;2023-07-20T02:26:20;101809.19;;;23.52;nan
7309;BME280;3695;53.330;9.876;2023-07-20T02:28:46;101809.75;;;25.75;nan
7309;BME280;3695;53.330;9.876;2023-07-20T02:31:12;101804.63;;;25.00;nan
7309;BME280;3695;53.330;9.876;2023-07-20T02:33:39;101813.84;;;21.77;nan
7309;BME280;3695;53.330;9.876;2023-07-20T02:36:06;101819.47;;;22.80;nan
7309;BME280;3695;53.330;9.876;2023-07-20T02:38:32;101816.78;;;25.04;nan
7309;BME280;3695;53.330;9.876;2023-07-20T02:41:00;101825.72;;;25.59;nan
7309;BME280;3695;53.330;9.876;2023-07-20T02:43:26;101809.25;;;27.10;nan
7309;BME280;3695;53.330;9.876;2023-07-20T02:45:53;101812.34;;;25.08;nan
7309;BME280;3695;53.330;9.876;2023-07-20T02:48:20;101820.34;;;24.71;nan
7309;BME280;3695;53.330;9.876;2023-07-20T02:50:46;101817.59;;;24.71;nan
7309;BME280;3695;53.330;9.876;2023-07-20T02:53:13;101817.91;;;24.59;nan
7309;BME280;3695;53.330;9.876;2023-07-20T02:55:39;101822.47;;;23.75;nan
7309;BME280;3695;53.330;9.876;2023-07-20T02:58:07;101817.41;;;23.93;nan
7309;BME280;3695;53.330;9.876;2023-07-20T03:00:33;101833.31;;;22.90;nan
7309;BME280;3695;53.330;9.876;2023-07-20T03:02:59;101814.31;;;24.59;nan
7309;BME280;3695;53.330;9.876;2023-07-20T03:05:26;101834.97;;;23.07;nan
7309;BME280;3695;53.330;9.876;2023-07-20T03:07:53;101803.88;;;29.31;nan
7309;BME280;3695;53.330;9.876;2023-07-20T03:10:19;101827.78;;;24.26;nan
7309;BME280;3695;53.330;9.876;2023-07-20T03:12:46;101834.25;;;22.23;nan
7309;BME280;3695;53.330;9.876;2023-07-20T03:15:13;101832.34;;;22.39;nan
7309;BME280;3695;53.330;9.876;2023-07-20T03:17:40;101842.16;;;22.10;nan
7309;BME280;3695;53.330;9.876;2023-07-20T03:20:07;101836.06;;;23.01;nan
7309;BME280;3695;53.330;9.876;2023-07-20T03:22:35;101839.66;;;22.91;nan
7309;BME280;3695;53.330;9.876;2023-07-20T03:25:02;101843.16;;;22.66;nan
7309;BME280;3695;53.330;9.876;2023-07-20T03:27:29;101835.19;;;24.90;nan
7309;BME280;3695;53.330;9.876;2023-07-20T03:29:56;101837.88;;;23.97;nan
7309;BME280;3695;53.330;9.876;2023-07-20T03:32:23;101835.63;;;22.26;nan
7309;BME280;3695;53.330;9.876;2023-07-20T03:34:50;101832.94;;;22.56;nan
7309;BME280;3695;53.330;9.876;2023-07-20T03:37:16;101844.63;;;23.65;nan
7309;BME280;3695;53.330;9.876;2023-07-20T03:39:43;101836.63;;;23.03;nan
7309;BME280;3695;53.330;9.876;2023-07-20T03:42:09;101828.34;;;24.33;nan
7309;BME280;3695;53.330;9.876;2023-07-20T03:44:35;101833.41;;;25.09;nan
7309;BME280;3695;53.330;9.876;2023-07-20T03:47:03;101849.97;;;24.26;nan
7309;BME280;3695;53.330;9.876;2023-07-20T03:49:31;101841.75;;;23.96;nan
7309;BME280;3695;53.330;9.876;2023-07-20T03:51:57;101842.09;;;24.93;nan
7309;BME280;3695;53.330;9.876;2023-07-20T03:54:24;101823.59;;;31.78;nan
7309;BME280;3695;53.330;9.876;2023-07-20T03:56:50;101825.81;;;30.17;nan
7309;BME280;3695;53.330;9.876;2023-07-20T03:59:16;101840.94;;;25.67;nan
7309;BME280;3695;53.330;9.876;2023-07-20T04:01:43;101843.75;;;27.41;nan
7309;BME280;3695;53.330;9.876;2023-07-20T04:04:09;101845.53;;;26.24;nan
7309;BME280;3695;53.330;9.876;2023-07-20T04:06:39;101838.38;;;26.80;nan
7309;BME280;3695;53.330;9.876;2023-07-20T04:09:06;101826.97;;;29.76;nan
7309;BME280;3695;53.330;9.876;2023-07-20T04:11:32;101826.00;;;29.41;nan
7309;BME280;3695;53.330;9.876;2023-07-20T04:13:59;101851.94;;;27.51;nan
7309;BME280;3695;53.330;9.876;2023-07-20T04:16:25;101850.50;;;27.54;nan
7309;BME280;3695;53.330;9.876;2023-07-20T04:18:54;101848.91;;;26.21;nan
7309;BME280;3695;53.330;9.876;2023-07-20T04:21:21;101852.81;;;26.63;nan
7309;BME280;3695;53.330;9.876;2023-07-20T04:23:49;101856.09;;;27.21;nan
7309;BME280;3695;53.330;9.876;2023-07-20T04:26:16;101863.56;;;26.70;nan
7309;BME280;3695;53.330;9.876;2023-07-20T04:28:42;101861.59;;;26.51;nan
7309;BME280;3695;53.330;9.876;2023-07-20T04:31:12;101861.63;;;25.80;nan
7309;BME280;3695;53.330;9.876;2023-07-20T04:33:39;101868.66;;;25.04;nan
7309;BME280;3695;53.330;9.876;2023-07-20T04:36:06;101863.75;;;25.88;nan
7309;BME280;3695;53.330;9.876;2023-07-20T04:38:32;101866.03;;;25.52;nan
7309;BME280;3695;53.330;9.876;2023-07-20T04:41:00;101870.28;;;24.66;nan
7309;BME280;3695;53.330;9.876;2023-07-20T04:43:29;101868.78;;;25.57;nan
7309;BME280;3695;53.330;9.876;2023-07-20T04:45:56;101866.06;;;25.81;nan
7309;BME280;3695;53.330;9.876;2023-07-20T04:48:23;101868.59;;;26.01;nan
7309;BME280;3695;53.330;9.876;2023-07-20T04:50:50;101865.47;;;26.08;nan
7309;BME280;3695;53.330;9.876;2023-07-20T04:53:16;101859.38;;;25.82;nan
7309;BME280;3695;53.330;9.876;2023-07-20T04:55:47;101860.97;;;27.89;nan
7309;BME280;3695;53.330;9.876;2023-07-20T04:58:17;101855.09;;;27.64;nan
7309;BME280;3695;53.330;9.876;2023-07-20T05:00:43;101858.22;;;26.73;nan
7309;BME280;3695;53.330;9.876;2023-07-20T05:03:10;101863.25;;;27.09;nan
7309;BME280;3695;53.330;9.876;2023-07-20T05:05:37;101860.91;;;25.93;nan
7309;BME280;3695;53.330;9.876;2023-07-20T05:08:04;101858.50;;;26.90;nan
7309;BME280;3695;53.330;9.876;2023-07-20T05:10:31;101820.09;;;37.36;nan
7309;BME280;3695;53.330;9.876;2023-07-20T05:12:57;101838.25;;;28.51;nan
7309;BME280;3695;53.330;9.876;2023-07-20T05:15:25;101861.97;;;25.73;nan
7309;BME280;3695;53.330;9.876;2023-07-20T05:17:52;101875.53;;;23.98;nan
7309;BME280;3695;53.330;9.876;2023-07-20T05:20:19;101853.56;;;28.90;nan
7309;BME280;3695;53.330;9.876;2023-07-20T05:22:46;101875.66;;;24.47;nan
7309;BME280;3695;53.330;9.876;2023-07-20T05:25:12;101872.00;;;22.96;nan
7309;BME280;3695;53.330;9.876;2023-07-20T05:27:40;101869.13;;;24.17;nan
7309;BME280;3695;53.330;9.876;2023-07-20T05:30:07;101876.63;;;24.02;nan
7309;BME280;3695;53.330;9.876;2023-07-20T05:32:35;101871.44;;;25.38;nan
7309;BME280;3695;53.330;9.876;2023-07-20T05:35:01;101872.66;;;25.27;nan
7309;BME280;3695;53.330;9.876;2023-07-20T05:37:28;101857.09;;;26.31;nan
7309;BME280;3695;53.330;9.876;2023-07-20T05:39:54;101870.84;;;25.75;nan
7309;BME280;3695;53.330;9.876;2023-07-20T05:42:21;101876.63;;;24.07;nan
7309;BME280;3695;53.330;9.876;2023-07-20T05:44:47;101872.78;;;25.12;nan
7309;BME280;3695;53.330;9.876;2023-07-20T05:47:15;101864.28;;;25.90;nan
7309;BME280;3695;53.330;9.876;2023-07-20T05:49:43;101874.69;;;26.03;nan
7309;BME280;3695;53.330;9.876;2023-07-20T05:52:09;101864.66;;;25.54;nan
7309;BME280;3695;53.330;9.876;2023-07-20T05:54:41;101859.75;;;28.37;nan
7309;BME280;3695;53.330;9.876;2023-07-20T05:57:08;101866.44;;;27.81;nan
7309;BME280;3695;53.330;9.876;2023-07-20T05:59:34;101868.97;;;28.24;nan
7309;BME280;3695;53.330;9.876;2023-07-20T06:02:01;101878.53;;;24.76;nan
7309;BME280;3695;53.330;9.876;2023-07-20T06:04:27;101869.72;;;26.24;nan
7309;BME280;3695;53.330;9.876;2023-07-20T06:06:55;101882.09;;;26.13;nan
7309;BME280;3695;53.330;9.876;2023-07-20T06:09:21;101881.75;;;25.66;nan
7309;BME280;3695;53.330;9.876;2023-07-20T06:11:48;101884.38;;;25.48;nan
7309;BME280;3695;53.330;9.876;2023-07-20T06:14:14;101901.63;;;23.76;nan
7309;BME280;3695;53.330;9.876;2023-07-20T06:16:41;101897.09;;;24.21;nan
7309;BME280;3695;53.330;9.876;2023-07-20T06:19:07;101889.97;;;26.00;nan
7309;BME280;3695;53.330;9.876;2023-07-20T06:21:36;101891.44;;;25.69;nan
7309;BME280;3695;53.330;9.876;2023-07-20T06:24:04;101885.69;;;25.60;nan
7309;BME280;3695;53.330;9.876;2023-07-20T06:26:31;101885.53;;;25.13;nan
7309;BME280;3695;53.330;9.876;2023-07-20T06:29:03;101879.47;;;27.20;nan
7309;BME280;3695;53.330;9.876;2023-07-20T06:31:29;101894.44;;;26.68;nan
7309;BME280;3695;53.330;9.876;2023-07-20T06:33:56;101897.69;;;23.98;nan
7309;BME280;3695;53.330;9.876;2023-07-20T06:36:22;101892.03;;;24.43;nan
7309;BME280;3695;53.330;9.876;2023-07-20T06:38:50;101893.00;;;28.06;nan
7309;BME280;3695;53.330;9.876;2023-07-20T06:41:17;101882.00;;;25.70;nan
7309;BME280;3695;53.330;9.876;2023-07-20T06:43:44;101890.66;;;25.29;nan
7309;BME280;3695;53.330;9.876;2023-07-20T06:46:11;101886.84;;;25.54;nan
7309;BME280;3695;53.330;9.876;2023-07-20T06:48:37;101886.72;;;24.52;nan
7309;BME280;3695;53.330;9.876;2023-07-20T06:51:03;101879.31;;;24.87;nan
7309;BME280;3695;53.330;9.876;2023-07-20T06:53:30;101871.38;;;26.25;nan
7309;BME280;3695;53.330;9.876;2023-07-20T06:55:56;101834.31;;;36.27;nan
7309;BME280;3695;53.330;9.876;2023-07-20T06:58:24;101840.78;;;32.98;nan
7309;BME280;3695;53.330;9.876;2023-07-20T07:00:51;101841.47;;;33.73;nan
7309;BME280;3695;53.330;9.876;2023-07-20T07:03:17;101863.38;;;25.70;nan
7309;BME280;3695;53.330;9.876;2023-07-20T07:05:44;101864.66;;;27.25;nan
7309;BME280;3695;53.330;9.876;2023-07-20T07:08:11;101861.00;;;26.30;nan
7309;BME280;3695;53.330;9.876;2023-07-20T07:10:38;101848.88;;;31.52;nan
7309;BME280;3695;53.330;9.876;2023-07-20T07:13:04;101847.41;;;33.14;nan
7309;BME280;3695;53.330;9.876;2023-07-20T07:15:32;101859.44;;;28.52;nan
7309;BME280;3695;53.330;9.876;2023-07-20T07:17:58;101857.69;;;25.57;nan
7309;BME280;3695;53.330;9.876;2023-07-20T07:20:25;101860.38;;;26.95;nan
7309;BME280;3695;53.330;9.876;2023-07-20T07:22:52;101861.94;;;26.45;nan
7309;BME280;3695;53.330;9.876;2023-07-20T07:25:19;101848.13;;;26.77;nan
7309;BME280;3695;53.330;9.876;2023-07-20T07:27:45;101844.47;;;27.33;nan
7309;BME280;3695;53.330;9.876;2023-07-20T07:30:12;101866.03;;;27.09;nan
7309;BME280;3695;53.330;9.876;2023-07-20T07:32:40;101870.31;;;25.39;nan
7309;BME280;3695;53.330;9.876;2023-07-20T07:35:07;101862.50;;;25.99;nan
7309;BME280;3695;53.330;9.876;2023-07-20T07:37:33;101865.34;;;25.94;nan
7309;BME280;3695;53.330;9.876;2023-07-20T07:40:00;101832.91;;;28.41;nan
7309;BME280;3695;53.330;9.876;2023-07-20T07:42:28;101855.81;;;26.00;nan
7309;BME280;3695;53.330;9.876;2023-07-20T07:44:55;101838.59;;;30.66;nan
7309;BME280;3695;53.330;9.876;2023-07-20T07:47:22;101847.34;;;28.93;nan
7309;BME280;3695;53.330;9.876;2023-07-20T07:49:49;101856.53;;;28.57;nan
7309;BME280;3695;53.330;9.876;2023-07-20T07:52:16;101852.91;;;27.28;nan
7309;BME280;3695;53.330;9.876;2023-07-20T07:54:42;101857.09;;;27.44;nan
7309;BME280;3695;53.330;9.876;2023-07-20T07:57:09;101875.28;;;27.23;nan
7309;BME280;3695;53.330;9.876;2023-07-20T07:59:35;101846.78;;;29.89;nan
7309;BME280;3695;53.330;9.876;2023-07-20T08:02:04;101862.31;;;27.65;nan
7309;BME280;3695;53.330;9.876;2023-07-20T08:04:30;101862.09;;;25.29;nan
7309;BME280;3695;53.330;9.876;2023-07-20T08:06:58;101868.03;;;27.54;nan
7309;BME280;3695;53.330;9.876;2023-07-20T08:09:25;101880.19;;;25.84;nan
7309;BME280;3695;53.330;9.876;2023-07-20T08:11:52;101889.31;;;25.27;nan
7309;BME280;3695;53.330;9.876;2023-07-20T08:14:18;101874.09;;;26.73;nan
7309;BME280;3695;53.330;9.876;2023-07-20T08:16:45;101881.25;;;26.12;nan
7309;BME280;3695;53.330;9.876;2023-07-20T08:19:12;101849.41;;;30.42;nan
7309;BME280;3695;53.330;9.876;2023-07-20T08:21:39;101883.00;;;27.91;nan
7309;BME280;3695;53.330;9.876;2023-07-20T08:24:07;101864.38;;;27.73;nan
7309;BME280;3695;53.330;9.876;2023-07-20T08:26:33;101856.63;;;27.37;nan
7309;BME280;3695;53.330;9.876;2023-07-20T08:29:00;101869.59;;;25.57;nan
7309;BME280;3695;53.330;9.876;2023-07-20T08:31:26;101879.22;;;25.94;nan
7309;BME280;3695;53.330;9.876;2023-07-20T08:33:53;101864.22;;;27.18;nan
7309;BME280;3695;53.330;9.876;2023-07-20T08:36:22;101860.28;;;28.11;nan
7309;BME280;3695;53.330;9.876;2023-07-20T08:38:48;101876.47;;;28.09;nan
7309;BME280;3695;53.330;9.876;2023-07-20T08:41:18;101862.03;;;27.94;nan
7309;BME280;3695;53.330;9.876;2023-07-20T08:43:46;101866.03;;;27.09;nan
7309;BME280;3695;53.330;9.876;2023-07-20T08:46:13;101865.00;;;27.05;nan
7309;BME280;3695;53.330;9.876;2023-07-20T08:48:40;101815.69;;;30.38;nan
7309;BME280;3695;53.330;9.876;2023-07-20T08:51:08;101846.66;;;27.96;nan
7309;BME280;3695;53.330;9.876;2023-07-20T08:53:36;101821.09;;;30.35;nan
7309;BME280;3695;53.330;9.876;2023-07-20T08:56:04;101838.31;;;32.34;nan
7309;BME280;3695;53.330;9.876;2023-07-20T08:58:34;101845.84;;;31.66;nan
7309;BME280;3695;53.330;9.876;2023-07-20T09:01:00;101885.34;;;26.62;nan
7309;BME280;3695;53.330;9.876;2023-07-20T09:03:27;101902.84;;;24.89;nan
7309;BME280;3695;53.330;9.876;2023-07-20T09:05:54;101923.44;;;24.03;nan
7309;BME280;3695;53.330;9.876;2023-07-20T13:00:52;101932.09;;;21.63;100.00
7309;BME280;3695;53.330;9.876;2023-07-20T13:03:18;101941.34;;;20.45;100.00
7309;BME280;3695;53.330;9.876;2023-07-20T13:05:45;101925.16;;;20.97;100.00
7309;BME280;3695;53.330;9.876;2023-07-20T13:08:11;101932.56;;;20.31;100.00
7309;BME280;3695;53.330;9.876;2023-07-20T13:10:38;101925.88;;;20.87;100.00
7309;BME280;3695;53.330;9.876;2023-07-20T13:13:05;101897.22;;;22.32;100.00
7309;BME280;3695;53.330;9.876;2023-07-20T13:15:32;101927.81;;;21.41;100.00
7309;BME280;3695;53.330;9.876;2023-07-20T13:18:07;101924.25;;;21.45;100.00
7309;BME280;3695;53.330;9.876;2023-07-20T13:20:34;101915.84;;;21.30;100.00
7309;BME280;3695;53.330;9.876;2023-07-20T13:23:00;101900.56;;;25.98;100.00
7309;BME280;3695;53.330;9.876;2023-07-20T13:25:27;101933.31;;;20.04;100.00
7309;BME280;3695;53.330;9.876;2023-07-20T13:27:54;101954.38;;;19.15;100.00
7309;BME280;3695;53.330;9.876;2023-07-20T13:30:20;101968.69;;;19.79;100.00
7309;BME280;3695;53.330;9.876;2023-07-20T13:32:47;101951.38;;;24.12;100.00
7309;BME280;3695;53.330;9.876;2023-07-20T13:35:14;101951.13;;;19.18;100.00
7309;BME280;3695;53.330;9.876;2023-07-20T13:37:41;101931.19;;;20.94;100.00
7309;BME280;3695;53.330;9.876;2023-07-20T13:40:08;101946.91;;;20.33;100.00
7309;BME280;3695;53.330;9.876;2023-07-20T13:42:37;101954.03;;;19.90;100.00
7309;BME280;3695;53.330;9.876;2023-07-20T13:45:05;101941.25;;;21.10;100.00
7309;BME280;3695;53.330;9.876;2023-07-20T13:47:31;101928.28;;;20.57;100.00
7309;BME280;3695;53.330;9.876;2023-07-20T13:49:57;101917.34;;;21.43;100.00
7309;BME280;3695;53.330;9.876;2023-07-20T13:52:25;101937.13;;;22.09;100.00
7309;BME280;3695;53.330;9.876;2023-07-20T13:54:52;101936.88;;;21.73;100.00
7309;BME280;3695;53.330;9.876;2023-07-20T13:57:18;101943.81;;;21.44;100.00
7309;BME280;3695;53.330;9.876;2023-07-20T13:59:45;101961.06;;;21.29;100.00
7309;BME280;3695;53.330;9.876;2023-07-20T14:02:11;101939.19;;;21.49;100.00
7309;BME280;3695;53.330;9.876;2023-07-20T14:04:38;101955.66;;;21.39;100.00
7309;BME280;3695;53.330;9.876;2023-07-20T14:07:05;101947.31;;;21.34;100.00
7309;BME280;3695;53.330;9.876;2023-07-20T14:09:33;101945.63;;;22.02;100.00
7309;BME280;3695;53.330;9.876;2023-07-20T14:12:00;101948.84;;;21.52;100.00
7309;BME280;3695;53.330;9.876;2023-07-20T14:14:26;101949.88;;;21.41;100.00
7309;BME280;3695;53.330;9.876;2023-07-20T14:16:52;101944.00;;;21.69;100.00
7309;BME280;3695;53.330;9.876;2023-07-20T14:19:19;101932.97;;;21.69;100.00
7309;BME280;3695;53.330;9.876;2023-07-20T14:21:46;101909.03;;;22.17;100.00
7309;BME280;3695;53.330;9.876;2023-07-20T14:24:12;101930.84;;;21.17;100.00
7309;BME280;3695;53.330;9.876;2023-07-20T14:26:40;101939.94;;;21.18;100.00
7309;BME280;3695;53.330;9.876;2023-07-20T14:29:08;101937.50;;;21.21;100.00
7309;BME280;3695;53.330;9.876;2023-07-20T14:31:34;101931.69;;;21.77;100.00
7309;BME280;3695;53.330;9.876;2023-07-20T14:34:01;101914.38;;;22.34;100.00
7309;BME280;3695;53.330;9.876;2023-07-20T14:36:27;101927.19;;;22.70;100.00
7309;BME280;3695;53.330;9.876;2023-07-20T14:38:54;101946.00;;;21.15;100.00
7309;BME280;3695;53.330;9.876;2023-07-20T14:41:20;101941.78;;;21.07;100.00
7309;BME280;3695;53.330;9.876;2023-07-20T14:43:48;101942.59;;;21.29;100.00
7309;BME280;3695;53.330;9.876;2023-07-20T14:46:14;101946.94;;;20.98;100.00
7309;BME280;3695;53.330;9.876;2023-07-20T14:48:41;101939.41;;;20.67;100.00
7309;BME280;3695;53.330;9.876;2023-07-20T14:51:07;101957.78;;;20.61;100.00
7309;BME280;3695;53.330;9.876;2023-07-20T14:53:34;101933.66;;;21.86;100.00
7309;BME280;3695;53.330;9.876;2023-07-20T14:56:00;101925.00;;;22.10;100.00
7309;BME280;3695;53.330;9.876;2023-07-20T14:58:27;101935.94;;;21.57;100.00
7309;BME280;3695;53.330;9.876;2023-07-20T15:00:54;101942.41;;;21.14;100.00
7309;BME280;3695;53.330;9.876;2023-07-20T15:03:21;101929.63;;;21.62;100.00
7309;BME280;3695;53.330;9.876;2023-07-20T15:05:47;101926.53;;;21.95;100.00
7309;BME280;3695;53.330;9.876;2023-07-20T15:08:16;101918.13;;;22.17;100.00
7309;BME280;3695;53.330;9.876;2023-07-20T15:10:44;101924.22;;;21.77;100.00
7309;BME280;3695;53.330;9.876;2023-07-20T15:13:12;101914.31;;;22.23;100.00
7309;BME280;3695;53.330;9.876;2023-07-20T15:15:38;101903.50;;;22.22;100.00
7309;BME280;3695;53.330;9.876;2023-07-20T15:18:06;101890.75;;;22.11;100.00
7309;BME280;3695;53.330;9.876;2023-07-20T15:20:32;101865.53;;;22.54;100.00
7309;BME280;3695;53.330;9.876;2023-07-20T15:22:59;101884.44;;;22.93;100.00
7309;BME280;3695;53.330;9.876;2023-07-20T15:25:25;101867.88;;;23.08;100.00
7309;BME280;3695;53.330;9.876;2023-07-20T15:27:52;101873.69;;;23.42;100.00
7309;BME280;3695;53.330;9.876;2023-07-20T15:30:18;101875.59;;;23.11;100.00
7309;BME280;3695;53.330;9.876;2023-07-20T15:32:45;101886.16;;;23.19;100.00
7309;BME280;3695;53.330;9.876;2023-07-20T15:35:13;101877.56;;;22.23;100.00
7309;BME280;3695;53.330;9.876;2023-07-20T15:37:39;101911.75;;;21.32;100.00
7309;BME280;3695;53.330;9.876;2023-07-20T15:40:07;101910.69;;;21.39;100.00
7309;BME280;3695;53.330;9.876;2023-07-20T15:42:33;101920.53;;;21.29;100.00
7309;BME280;3695;53.330;9.876;2023-07-20T15:44:59;101914.72;;;21.63;100.00
7309;BME280;3695;53.330;9.876;2023-07-20T15:47:25;101909.47;;;21.61;100.00
7309;BME280;3695;53.330;9.876;2023-07-20T15:49:52;101914.69;;;21.58;100.00
7309;BME280;3695;53.330;9.876;2023-07-20T15:52:20;101911.97;;;21.63;100.00
7309;BME280;3695;53.330;9.876;2023-07-20T15:54:47;101910.00;;;20.99;100.00
7309;BME280;3695;53.330;9.876;2023-07-20T15:57:13;101907.13;;;21.80;100.00
7309;BME280;3695;53.330;9.876;2023-07-20T15:59:40;101916.34;;;21.00;100.00
7309;BME280;3695;53.330;9.876;2023-07-20T16:02:06;101914.38;;;21.54;100.00
7309;BME280;3695;53.330;9.876;2023-07-20T16:04:33;101881.72;;;23.74;100.00
7309;BME280;3695;53.330;9.876;2023-07-20T16:06:59;101897.22;;;23.30;100.00
7309;BME280;3695;53.330;9.876;2023-07-20T16:09:27;101872.34;;;25.62;100.00
7309;BME280;3695;53.330;9.876;2023-07-20T16:11:54;101870.38;;;25.92;100.00
7309;BME280;3695;53.330;9.876;2023-07-20T16:14:20;101876.25;;;24.88;100.00
7309;BME280;3695;53.330;9.876;2023-07-20T16:16:47;101912.25;;;22.61;100.00
7309;BME280;3695;53.330;9.876;2023-07-20T16:19:13;101902.97;;;22.82;100.00
7309;BME280;3695;53.330;9.876;2023-07-20T16:21:40;101932.38;;;20.16;100.00
7309;BME280;3695;53.330;9.876;2023-07-20T16:24:06;101935.47;;;19.35;100.00
7309;BME280;3695;53.330;9.876;2023-07-20T16:26:34;101924.69;;;19.79;100.00
7309;BME280;3695;53.330;9.876;2023-07-20T16:29:01;101915.56;;;20.78;100.00
7309;BME280;3695;53.330;9.876;2023-07-20T16:31:28;101926.34;;;19.80;100.00
7309;BME280;3695;53.330;9.876;2023-07-20T16:33:54;101909.13;;;22.37;100.00
7309;BME280;3695;53.330;9.876;2023-07-20T16:36:20;101886.63;;;23.98;100.00
7309;BME280;3695;53.330;9.876;2023-07-20T16:38:47;101889.44;;;23.62;100.00
7309;BME280;3695;53.330;9.876;2023-07-20T16:41:13;101884.75;;;23.37;100.00
7309;BME280;3695;53.330;9.876;2023-07-20T16:43:41;101895.03;;;22.34;100.00
7309;BME280;3695;53.330;9.876;2023-07-20T16:46:08;101887.50;;;23.17;100.00
7309;BME280;3695;53.330;9.876;2023-07-20T16:48:36;101876.94;;;25.14;100.00
7309;BME280;3695;53.330;9.876;2023-07-20T16:51:02;101843.34;;;27.02;100.00
7309;BME280;3695;53.330;9.876;2023-07-20T16:53:29;101865.94;;;25.67;100.00
7309;BME280;3695;53.330;9.876;2023-07-20T16:55:56;101878.88;;;24.69;100.00
7309;BME280;3695;53.330;9.876;2023-07-20T16:58:23;101899.13;;;23.65;100.00
7309;BME280;3695;53.330;9.876;2023-07-20T17:00:59;101905.38;;;21.69;100.00
7309;BME280;3695;53.330;9.876;2023-07-20T17:03:25;101904.72;;;21.52;100.00
7309;BME280;3695;53.330;9.876;2023-07-20T17:05:54;101892.47;;;22.84;100.00
7309;BME280;3695;53.330;9.876;2023-07-20T17:08:20;101880.72;;;22.52;100.00
7309;BME280;3695;53.330;9.876;2023-07-20T17:10:47;101905.81;;;20.92;100.00
7309;BME280;3695;53.330;9.876;2023-07-20T17:13:13;101903.13;;;21.61;100.00
7309;BME280;3695;53.330;9.876;2023-07-20T17:15:41;101896.63;;;21.77;100.00